Sea Island, GA

12:11 PM EDT on July 24, 2014 (GMT -0400)
McKinnon (KSSI) Elev 20 ft | 31.15 °N, 81.39 °W | Change Station

Current weather conditions updated 18 minutes ago

Clear
Clear
88 °F
Feels Like 95 °F
N
9
Wind Variable Wind from WSW

Today is forecast to be nearly the same temperature as yesterday.

Today
High -- | Low -- °F
--% Chance of Precip.
Yesterday
High -- | Low -- °F
Precip. -- in
6:37 AM 8:26 PM
Waning Crescent, 5% visible
Pressure 30.02 in
Visibility 10.0 miles
Clouds Few 3200 ft
Heat Index 95 °F
Dew Point 72 °F
Humidity 59%
Rainfall 0.00 in
Snow Depth Not available.
UV 11 out of 12
Pollen 4.90 out of 12
Air Quality Not available.
Flu Activity Not available.
METAR KSSI 241553Z AUTO 25008KT 10SM FEW032 31/22 A3002 RMK AO2 SLP165 T03110222

More Conditions Fewer Conditions

Pressure 30.02 in
Visibility 10.0 miles
Clouds Few 3200 ft
Heat Index 95 °F
Dew Point 72 °F
Humidity 59%
Rainfall 0.00 in
Snow Depth Not available.
UV 11 out of 12
Pollen 4.90 out of 12
Air Quality Not available.
Flu Activity Not available.
METAR KSSI 241553Z AUTO 25008KT 10SM FEW032 31/22 A3002 RMK AO2 SLP165 T03110222

More Conditions Fewer Conditions

10-Day Weather Forecast

Almanac

Astronomy

Jul. 24, 2014 Rise Set
Actual Time 6:37 AM EDT 8:26 PM EDT
Civil Twilight 6:10 AM EDT 8:52 PM EDT
Nautical Twilight 5:37 AM EDT 9:25 PM EDT
Astronomical Twilight 5:03 AM EDT 9:59 PM EDT
Moon 4:42 AM EDT 6:42 PM EDT
Length of Visible Light 14h 42m
Length of Day
13h 49m
Tomorrow will be 1m 13s shorter.
Waning Crescent, 5% of the Moon is Illuminated
Today
Waning Crescent
Jul 26
New
Aug 3
First Quarter
Aug 10
Full
Aug 17
Last Quarter

Today's Extremes

State Highs State Lows

Community

WunderPhotos

Upload Photos

1,737,056 photos uploaded!

Nearby

Snow Depth

Station Depth Elevation
No new snow has been reported.

Earthquake Activity

City Distance Mag. Time & Date
No recent earthquake activity has been reported nearby.
Minimum magnitude displayed is 2.5.

Coastal Water Temperatures

Place Temperature
Fernandina Beach, FL 84.9 °F
Mayport (Bar Pilots Dock), FL 86.0 °F

Nearby Weather Stations

Station Location Temp. Heat Index Dew Point Humidity Wind Precip. Elev Updated Type
Country Walk, Brunswick, GA 88.7 °F 102 °F 78 °F 70% West  at  2.0 mph 0.00 in / hr 30 ft 12:11 PM EDT Rapid Fire
Avalon Place, Brunswick, GA 88.3 °F 98 °F 75 °F 65% SW  at  3.8 mph 0.00 in / hr 43 ft 12:11 PM EDT Rapid Fire
RAWS STERLING GA, Brunswick, GA 87 °F 96 °F 74 °F 66% West  at  4 mph 0.00 in / hr 13 ft 11:04 AM EDT MADIS

Show More Stations Show Fewer Stations